sensor_id;sensor_type;location;lat;lon;timestamp;P1;durP1;ratioP1;P2;durP2;ratioP2
76202;SDS011;64985;46.364;17.008;2023-06-26T00:01:35;22.10;;;16.88;;
76202;SDS011;64985;46.364;17.008;2023-06-26T00:04:37;22.73;;;16.88;;
76202;SDS011;64985;46.364;17.008;2023-06-26T00:07:39;22.80;;;16.33;;
76202;SDS011;64985;46.364;17.008;2023-06-26T00:10:41;22.75;;;16.42;;
76202;SDS011;64985;46.364;17.008;2023-06-26T00:13:43;23.55;;;16.20;;
76202;SDS011;64985;46.364;17.008;2023-06-26T00:16:49;24.50;;;16.45;;
76202;SDS011;64985;46.364;17.008;2023-06-26T00:19:51;23.50;;;16.17;;
76202;SDS011;64985;46.364;17.008;2023-06-26T00:22:53;21.55;;;16.48;;
76202;SDS011;64985;46.364;17.008;2023-06-26T00:25:56;22.05;;;15.52;;
76202;SDS011;64985;46.364;17.008;2023-06-26T00:28:59;19.48;;;14.82;;
76202;SDS011;64985;46.364;17.008;2023-06-26T00:32:01;20.05;;;15.00;;
76202;SDS011;64985;46.364;17.008;2023-06-26T00:35:03;22.77;;;14.52;;
76202;SDS011;64985;46.364;17.008;2023-06-26T00:38:05;23.98;;;15.27;;
76202;SDS011;64985;46.364;17.008;2023-06-26T00:41:07;24.73;;;15.85;;
76202;SDS011;64985;46.364;17.008;2023-06-26T00:44:14;23.45;;;16.55;;
76202;SDS011;64985;46.364;17.008;2023-06-26T00:47:16;24.40;;;16.23;;
76202;SDS011;64985;46.364;17.008;2023-06-26T00:50:19;23.13;;;15.52;;
76202;SDS011;64985;46.364;17.008;2023-06-26T00:53:22;19.88;;;15.15;;
76202;SDS011;64985;46.364;17.008;2023-06-26T00:56:24;21.42;;;15.38;;
76202;SDS011;64985;46.364;17.008;2023-06-26T00:59:26;21.10;;;15.70;;
76202;SDS011;64985;46.364;17.008;2023-06-26T01:02:28;24.92;;;16.33;;
76202;SDS011;64985;46.364;17.008;2023-06-26T01:05:35;23.70;;;17.20;;
76202;SDS011;64985;46.364;17.008;2023-06-26T01:08:38;24.15;;;17.88;;
76202;SDS011;64985;46.364;17.008;2023-06-26T01:11:40;24.85;;;16.75;;
76202;SDS011;64985;46.364;17.008;2023-06-26T01:14:43;25.75;;;17.95;;
76202;SDS011;64985;46.364;17.008;2023-06-26T01:17:45;20.85;;;15.35;;
76202;SDS011;64985;46.364;17.008;2023-06-26T01:20:48;20.92;;;14.95;;
76202;SDS011;64985;46.364;17.008;2023-06-26T01:27:06;21.38;;;14.55;;
76202;SDS011;64985;46.364;17.008;2023-06-26T01:30:08;24.80;;;15.07;;
76202;SDS011;64985;46.364;17.008;2023-06-26T01:33:12;19.92;;;14.70;;
76202;SDS011;64985;46.364;17.008;2023-06-26T01:36:15;23.17;;;15.13;;
76202;SDS011;64985;46.364;17.008;2023-06-26T01:39:18;22.85;;;15.18;;
76202;SDS011;64985;46.364;17.008;2023-06-26T01:42:21;25.65;;;14.90;;
76202;SDS011;64985;46.364;17.008;2023-06-26T01:45:27;20.63;;;14.63;;
76202;SDS011;64985;46.364;17.008;2023-06-26T01:49:20;23.52;;;15.55;;
76202;SDS011;64985;46.364;17.008;2023-06-26T01:55:31;23.45;;;16.40;;
76202;SDS011;64985;46.364;17.008;2023-06-26T01:58:43;23.65;;;16.20;;
76202;SDS011;64985;46.364;17.008;2023-06-26T02:01:47;24.58;;;16.75;;
76202;SDS011;64985;46.364;17.008;2023-06-26T02:04:51;22.25;;;16.65;;
76202;SDS011;64985;46.364;17.008;2023-06-26T02:07:53;22.02;;;15.93;;
76202;SDS011;64985;46.364;17.008;2023-06-26T02:10:55;23.85;;;16.40;;
76202;SDS011;64985;46.364;17.008;2023-06-26T02:13:57;23.80;;;16.20;;
76202;SDS011;64985;46.364;17.008;2023-06-26T02:16:59;21.50;;;15.20;;
76202;SDS011;64985;46.364;17.008;2023-06-26T02:20:01;26.05;;;15.63;;
76202;SDS011;64985;46.364;17.008;2023-06-26T02:23:04;26.52;;;15.38;;
76202;SDS011;64985;46.364;17.008;2023-06-26T02:26:06;25.08;;;15.43;;
76202;SDS011;64985;46.364;17.008;2023-06-26T02:29:09;22.20;;;14.68;;
76202;SDS011;64985;46.364;17.008;2023-06-26T02:32:11;28.15;;;15.32;;
76202;SDS011;64985;46.364;17.008;2023-06-26T02:35:13;25.83;;;15.15;;
76202;SDS011;64985;46.364;17.008;2023-06-26T02:38:15;26.25;;;16.58;;
76202;SDS011;64985;46.364;17.008;2023-06-26T02:41:17;22.10;;;15.82;;
76202;SDS011;64985;46.364;17.008;2023-06-26T02:44:19;23.65;;;15.45;;
76202;SDS011;64985;46.364;17.008;2023-06-26T02:47:22;21.05;;;14.82;;
76202;SDS011;64985;46.364;17.008;2023-06-26T02:50:24;26.50;;;15.32;;
76202;SDS011;64985;46.364;17.008;2023-06-26T02:53:27;23.67;;;15.38;;
76202;SDS011;64985;46.364;17.008;2023-06-26T02:56:29;24.25;;;16.35;;
76202;SDS011;64985;46.364;17.008;2023-06-26T02:59:31;28.08;;;17.65;;
76202;SDS011;64985;46.364;17.008;2023-06-26T03:02:34;28.42;;;17.67;;
76202;SDS011;64985;46.364;17.008;2023-06-26T03:05:36;27.65;;;18.02;;
76202;SDS011;64985;46.364;17.008;2023-06-26T03:08:39;29.48;;;17.27;;
76202;SDS011;64985;46.364;17.008;2023-06-26T03:11:42;27.77;;;17.40;;
76202;SDS011;64985;46.364;17.008;2023-06-26T03:14:44;24.23;;;16.95;;
76202;SDS011;64985;46.364;17.008;2023-06-26T03:17:48;22.55;;;16.60;;
76202;SDS011;64985;46.364;17.008;2023-06-26T03:20:50;24.58;;;16.10;;
76202;SDS011;64985;46.364;17.008;2023-06-26T03:23:52;24.55;;;15.27;;
76202;SDS011;64985;46.364;17.008;2023-06-26T03:26:54;25.10;;;15.50;;
76202;SDS011;64985;46.364;17.008;2023-06-26T03:29:56;26.10;;;16.02;;
76202;SDS011;64985;46.364;17.008;2023-06-26T03:32:58;22.40;;;16.95;;
76202;SDS011;64985;46.364;17.008;2023-06-26T03:36:00;25.88;;;16.55;;
76202;SDS011;64985;46.364;17.008;2023-06-26T03:39:02;28.88;;;18.23;;
76202;SDS011;64985;46.364;17.008;2023-06-26T03:42:05;26.10;;;17.42;;
76202;SDS011;64985;46.364;17.008;2023-06-26T03:45:08;28.30;;;19.42;;
76202;SDS011;64985;46.364;17.008;2023-06-26T03:48:10;28.38;;;20.13;;
76202;SDS011;64985;46.364;17.008;2023-06-26T03:51:12;31.40;;;19.15;;
76202;SDS011;64985;46.364;17.008;2023-06-26T03:54:15;31.15;;;20.58;;
76202;SDS011;64985;46.364;17.008;2023-06-26T03:57:17;28.98;;;19.95;;
76202;SDS011;64985;46.364;17.008;2023-06-26T04:00:19;29.65;;;19.30;;
76202;SDS011;64985;46.364;17.008;2023-06-26T04:03:21;30.38;;;18.75;;
76202;SDS011;64985;46.364;17.008;2023-06-26T04:06:24;30.65;;;18.45;;
76202;SDS011;64985;46.364;17.008;2023-06-26T04:09:26;33.28;;;18.55;;
76202;SDS011;64985;46.364;17.008;2023-06-26T04:12:28;24.33;;;17.75;;
76202;SDS011;64985;46.364;17.008;2023-06-26T04:15:30;27.75;;;18.65;;
76202;SDS011;64985;46.364;17.008;2023-06-26T04:18:33;26.25;;;18.33;;
76202;SDS011;64985;46.364;17.008;2023-06-26T04:21:35;26.20;;;17.85;;
76202;SDS011;64985;46.364;17.008;2023-06-26T04:24:37;24.23;;;17.35;;
76202;SDS011;64985;46.364;17.008;2023-06-26T04:27:39;21.92;;;16.98;;
76202;SDS011;64985;46.364;17.008;2023-06-26T04:30:42;25.77;;;16.45;;
76202;SDS011;64985;46.364;17.008;2023-06-26T04:33:44;22.67;;;15.63;;
76202;SDS011;64985;46.364;17.008;2023-06-26T04:36:46;17.92;;;14.10;;
76202;SDS011;64985;46.364;17.008;2023-06-26T04:39:49;18.30;;;14.95;;
76202;SDS011;64985;46.364;17.008;2023-06-26T04:42:52;18.25;;;14.48;;
76202;SDS011;64985;46.364;17.008;2023-06-26T04:45:54;18.90;;;14.45;;
76202;SDS011;64985;46.364;17.008;2023-06-26T04:48:56;18.38;;;14.40;;
76202;SDS011;64985;46.364;17.008;2023-06-26T04:51:59;20.77;;;13.85;;
76202;SDS011;64985;46.364;17.008;2023-06-26T04:55:02;17.17;;;13.65;;
76202;SDS011;64985;46.364;17.008;2023-06-26T04:58:04;17.77;;;14.07;;
76202;SDS011;64985;46.364;17.008;2023-06-26T05:01:07;18.88;;;12.98;;
76202;SDS011;64985;46.364;17.008;2023-06-26T05:04:09;17.15;;;12.80;;
76202;SDS011;64985;46.364;17.008;2023-06-26T05:07:11;18.50;;;13.05;;
76202;SDS011;64985;46.364;17.008;2023-06-26T05:10:14;18.33;;;12.35;;
76202;SDS011;64985;46.364;17.008;2023-06-26T05:13:16;14.40;;;12.50;;
76202;SDS011;64985;46.364;17.008;2023-06-26T05:16:20;15.50;;;12.13;;
76202;SDS011;64985;46.364;17.008;2023-06-26T05:19:22;15.27;;;12.13;;
76202;SDS011;64985;46.364;17.008;2023-06-26T05:22:25;13.43;;;11.40;;
76202;SDS011;64985;46.364;17.008;2023-06-26T05:25:28;16.13;;;11.82;;
76202;SDS011;64985;46.364;17.008;2023-06-26T05:28:31;14.65;;;11.68;;
76202;SDS011;64985;46.364;17.008;2023-06-26T05:31:34;18.77;;;11.27;;
76202;SDS011;64985;46.364;17.008;2023-06-26T05:34:41;14.10;;;11.18;;
76202;SDS011;64985;46.364;17.008;2023-06-26T05:37:44;16.52;;;11.50;;
76202;SDS011;64985;46.364;17.008;2023-06-26T05:40:47;16.33;;;11.52;;
76202;SDS011;64985;46.364;17.008;2023-06-26T05:43:49;13.18;;;11.00;;
76202;SDS011;64985;46.364;17.008;2023-06-26T05:46:51;12.80;;;10.57;;
76202;SDS011;64985;46.364;17.008;2023-06-26T05:49:53;12.68;;;11.05;;
76202;SDS011;64985;46.364;17.008;2023-06-26T05:52:55;11.88;;;10.60;;
76202;SDS011;64985;46.364;17.008;2023-06-26T05:55:58;16.15;;;10.68;;
76202;SDS011;64985;46.364;17.008;2023-06-26T05:59:00;13.82;;;10.48;;
76202;SDS011;64985;46.364;17.008;2023-06-26T06:02:04;13.43;;;10.38;;
76202;SDS011;64985;46.364;17.008;2023-06-26T06:05:06;14.35;;;10.10;;
76202;SDS011;64985;46.364;17.008;2023-06-26T06:08:09;12.40;;;10.23;;
76202;SDS011;64985;46.364;17.008;2023-06-26T06:11:11;12.60;;;10.95;;
76202;SDS011;64985;46.364;17.008;2023-06-26T06:14:13;13.32;;;10.43;;
76202;SDS011;64985;46.364;17.008;2023-06-26T06:17:15;11.88;;;10.40;;
76202;SDS011;64985;46.364;17.008;2023-06-26T06:20:26;14.93;;;9.95;;
76202;SDS011;64985;46.364;17.008;2023-06-26T06:23:29;11.05;;;9.95;;
76202;SDS011;64985;46.364;17.008;2023-06-26T06:26:31;11.23;;;9.93;;
76202;SDS011;64985;46.364;17.008;2023-06-26T06:29:33;12.07;;;10.18;;
76202;SDS011;64985;46.364;17.008;2023-06-26T06:32:35;14.57;;;9.90;;
76202;SDS011;64985;46.364;17.008;2023-06-26T06:35:37;12.25;;;9.50;;
76202;SDS011;64985;46.364;17.008;2023-06-26T06:38:42;13.00;;;9.85;;
76202;SDS011;64985;46.364;17.008;2023-06-26T06:41:45;10.43;;;9.30;;
76202;SDS011;64985;46.364;17.008;2023-06-26T06:44:47;10.38;;;9.38;;
76202;SDS011;64985;46.364;17.008;2023-06-26T06:47:49;12.30;;;9.40;;
76202;SDS011;64985;46.364;17.008;2023-06-26T06:50:51;10.23;;;9.23;;
76202;SDS011;64985;46.364;17.008;2023-06-26T06:53:53;15.02;;;9.27;;
76202;SDS011;64985;46.364;17.008;2023-06-26T06:56:55;13.52;;;9.13;;
76202;SDS011;64985;46.364;17.008;2023-06-26T06:59:58;13.52;;;8.95;;
76202;SDS011;64985;46.364;17.008;2023-06-26T07:03:00;10.50;;;8.38;;
76202;SDS011;64985;46.364;17.008;2023-06-26T07:06:02;10.73;;;9.18;;
76202;SDS011;64985;46.364;17.008;2023-06-26T07:09:04;12.00;;;8.05;;
76202;SDS011;64985;46.364;17.008;2023-06-26T07:12:08;10.77;;;8.77;;
76202;SDS011;64985;46.364;17.008;2023-06-26T07:15:10;12.60;;;8.20;;
76202;SDS011;64985;46.364;17.008;2023-06-26T07:18:12;10.48;;;7.97;;
76202;SDS011;64985;46.364;17.008;2023-06-26T07:21:15;11.02;;;8.32;;
76202;SDS011;64985;46.364;17.008;2023-06-26T07:24:17;10.43;;;7.70;;
76202;SDS011;64985;46.364;17.008;2023-06-26T07:27:19;9.60;;;7.57;;
76202;SDS011;64985;46.364;17.008;2023-06-26T07:30:22;9.82;;;7.95;;
76202;SDS011;64985;46.364;17.008;2023-06-26T07:33:25;9.07;;;7.57;;
76202;SDS011;64985;46.364;17.008;2023-06-26T07:36:27;8.90;;;6.90;;
76202;SDS011;64985;46.364;17.008;2023-06-26T07:39:29;10.50;;;7.30;;
76202;SDS011;64985;46.364;17.008;2023-06-26T07:42:32;8.63;;;7.10;;
76202;SDS011;64985;46.364;17.008;2023-06-26T07:45:34;7.80;;;6.55;;
76202;SDS011;64985;46.364;17.008;2023-06-26T07:48:36;9.00;;;7.00;;
76202;SDS011;64985;46.364;17.008;2023-06-26T07:51:38;10.13;;;6.90;;
76202;SDS011;64985;46.364;17.008;2023-06-26T07:54:40;11.07;;;6.90;;
76202;SDS011;64985;46.364;17.008;2023-06-26T07:57:43;10.32;;;6.95;;
76202;SDS011;64985;46.364;17.008;2023-06-26T08:00:47;9.60;;;7.20;;
76202;SDS011;64985;46.364;17.008;2023-06-26T08:03:49;7.72;;;6.55;;
76202;SDS011;64985;46.364;17.008;2023-06-26T08:06:53;9.23;;;6.97;;
76202;SDS011;64985;46.364;17.008;2023-06-26T08:09:57;7.63;;;6.75;;
76202;SDS011;64985;46.364;17.008;2023-06-26T08:12:59;7.90;;;6.78;;
76202;SDS011;64985;46.364;17.008;2023-06-26T08:16:01;9.73;;;6.72;;
76202;SDS011;64985;46.364;17.008;2023-06-26T08:19:03;10.68;;;6.38;;
76202;SDS011;64985;46.364;17.008;2023-06-26T08:22:05;7.68;;;6.30;;
76202;SDS011;64985;46.364;17.008;2023-06-26T08:25:07;6.85;;;6.07;;
76202;SDS011;64985;46.364;17.008;2023-06-26T08:28:10;8.43;;;5.53;;
76202;SDS011;64985;46.364;17.008;2023-06-26T08:31:12;8.60;;;5.80;;
76202;SDS011;64985;46.364;17.008;2023-06-26T08:34:14;6.70;;;5.90;;
76202;SDS011;64985;46.364;17.008;2023-06-26T08:37:16;7.32;;;6.07;;
76202;SDS011;64985;46.364;17.008;2023-06-26T08:40:18;11.02;;;6.03;;
76202;SDS011;64985;46.364;17.008;2023-06-26T08:43:22;7.03;;;6.32;;
76202;SDS011;64985;46.364;17.008;2023-06-26T08:46:24;10.25;;;6.45;;
76202;SDS011;64985;46.364;17.008;2023-06-26T08:52:53;6.85;;;6.00;;
76202;SDS011;64985;46.364;17.008;2023-06-26T08:56:06;6.47;;;5.88;;
76202;SDS011;64985;46.364;17.008;2023-06-26T08:59:09;6.82;;;6.13;;
76202;SDS011;64985;46.364;17.008;2023-06-26T09:02:16;7.47;;;5.80;;
76202;SDS011;64985;46.364;17.008;2023-06-26T09:05:18;6.75;;;5.60;;
76202;SDS011;64985;46.364;17.008;2023-06-26T09:08:20;7.43;;;5.47;;
76202;SDS011;64985;46.364;17.008;2023-06-26T09:11:22;9.00;;;5.38;;
76202;SDS011;64985;46.364;17.008;2023-06-26T09:14:24;8.32;;;6.25;;
76202;SDS011;64985;46.364;17.008;2023-06-26T09:17:30;9.60;;;6.07;;
76202;SDS011;64985;46.364;17.008;2023-06-26T09:20:34;7.95;;;5.53;;
76202;SDS011;64985;46.364;17.008;2023-06-26T09:23:39;6.28;;;5.60;;
76202;SDS011;64985;46.364;17.008;2023-06-26T09:26:43;5.90;;;5.30;;
76202;SDS011;64985;46.364;17.008;2023-06-26T09:29:45;6.70;;;5.65;;
76202;SDS011;64985;46.364;17.008;2023-06-26T09:32:48;8.15;;;5.82;;
76202;SDS011;64985;46.364;17.008;2023-06-26T09:35:52;9.88;;;5.68;;
76202;SDS011;64985;46.364;17.008;2023-06-26T09:38:54;7.65;;;5.68;;
76202;SDS011;64985;46.364;17.008;2023-06-26T09:41:57;6.60;;;5.30;;
76202;SDS011;64985;46.364;17.008;2023-06-26T09:45:01;7.68;;;5.38;;
76202;SDS011;64985;46.364;17.008;2023-06-26T09:48:04;7.70;;;5.70;;
76202;SDS011;64985;46.364;17.008;2023-06-26T09:51:06;6.07;;;5.47;;
76202;SDS011;64985;46.364;17.008;2023-06-26T09:54:15;6.63;;;5.18;;
76202;SDS011;64985;46.364;17.008;2023-06-26T09:57:19;8.48;;;5.28;;
76202;SDS011;64985;46.364;17.008;2023-06-26T10:00:21;5.65;;;4.80;;
76202;SDS011;64985;46.364;17.008;2023-06-26T10:03:23;6.55;;;5.03;;
76202;SDS011;64985;46.364;17.008;2023-06-26T10:06:32;6.00;;;5.05;;
76202;SDS011;64985;46.364;17.008;2023-06-26T10:09:38;5.22;;;4.57;;
76202;SDS011;64985;46.364;17.008;2023-06-26T10:12:43;6.70;;;4.72;;
76202;SDS011;64985;46.364;17.008;2023-06-26T10:15:50;6.15;;;4.95;;
76202;SDS011;64985;46.364;17.008;2023-06-26T10:18:53;5.63;;;4.60;;
76202;SDS011;64985;46.364;17.008;2023-06-26T10:22:01;4.90;;;4.40;;
76202;SDS011;64985;46.364;17.008;2023-06-26T10:25:04;4.97;;;4.38;;
76202;SDS011;64985;46.364;17.008;2023-06-26T10:28:09;8.40;;;4.57;;
76202;SDS011;64985;46.364;17.008;2023-06-26T10:31:14;5.25;;;4.75;;
76202;SDS011;64985;46.364;17.008;2023-06-26T10:34:16;5.85;;;4.85;;
76202;SDS011;64985;46.364;17.008;2023-06-26T10:37:18;8.88;;;4.38;;
76202;SDS011;64985;46.364;17.008;2023-06-26T10:40:21;5.28;;;4.78;;
76202;SDS011;64985;46.364;17.008;2023-06-26T10:43:29;7.78;;;5.30;;
76202;SDS011;64985;46.364;17.008;2023-06-26T10:49:54;5.53;;;4.90;;
76202;SDS011;64985;46.364;17.008;2023-06-26T11:00:09;6.80;;;4.70;;
76202;SDS011;64985;46.364;17.008;2023-06-26T11:03:25;5.10;;;4.60;;
76202;SDS011;64985;46.364;17.008;2023-06-26T11:06:33;7.53;;;4.72;;
76202;SDS011;64985;46.364;17.008;2023-06-26T11:09:37;5.72;;;4.32;;
76202;SDS011;64985;46.364;17.008;2023-06-26T11:13:09;7.40;;;4.82;;
76202;SDS011;64985;46.364;17.008;2023-06-26T11:16:12;8.05;;;4.75;;
76202;SDS011;64985;46.364;17.008;2023-06-26T11:19:18;5.63;;;4.90;;
76202;SDS011;64985;46.364;17.008;2023-06-26T11:22:21;5.28;;;4.78;;
76202;SDS011;64985;46.364;17.008;2023-06-26T11:25:24;6.65;;;4.60;;
76202;SDS011;64985;46.364;17.008;2023-06-26T11:28:26;8.10;;;5.10;;
76202;SDS011;64985;46.364;17.008;2023-06-26T11:31:31;8.10;;;4.72;;
76202;SDS011;64985;46.364;17.008;2023-06-26T11:34:34;7.07;;;4.55;;
76202;SDS011;64985;46.364;17.008;2023-06-26T11:37:37;6.07;;;5.20;;
76202;SDS011;64985;46.364;17.008;2023-06-26T11:40:39;5.25;;;4.75;;
76202;SDS011;64985;46.364;17.008;2023-06-26T11:43:42;7.68;;;5.43;;
76202;SDS011;64985;46.364;17.008;2023-06-26T11:46:44;5.78;;;5.18;;
76202;SDS011;64985;46.364;17.008;2023-06-26T11:49:46;6.72;;;5.10;;
76202;SDS011;64985;46.364;17.008;2023-06-26T11:52:53;5.90;;;5.20;;
76202;SDS011;64985;46.364;17.008;2023-06-26T11:55:57;10.98;;;5.20;;
76202;SDS011;64985;46.364;17.008;2023-06-26T11:59:03;6.88;;;4.90;;
76202;SDS011;64985;46.364;17.008;2023-06-26T12:02:10;5.43;;;4.90;;
76202;SDS011;64985;46.364;17.008;2023-06-26T12:05:15;5.80;;;4.78;;
76202;SDS011;64985;46.364;17.008;2023-06-26T12:08:18;9.88;;;5.50;;
76202;SDS011;64985;46.364;17.008;2023-06-26T12:11:20;6.80;;;5.20;;
76202;SDS011;64985;46.364;17.008;2023-06-26T12:14:26;6.55;;;5.18;;
76202;SDS011;64985;46.364;17.008;2023-06-26T12:17:31;5.90;;;5.22;;
76202;SDS011;64985;46.364;17.008;2023-06-26T12:20:33;7.15;;;5.40;;
76202;SDS011;64985;46.364;17.008;2023-06-26T12:23:42;5.68;;;4.93;;
76202;SDS011;64985;46.364;17.008;2023-06-26T12:26:44;4.70;;;4.20;;
76202;SDS011;64985;46.364;17.008;2023-06-26T12:29:50;6.47;;;4.05;;
76202;SDS011;64985;46.364;17.008;2023-06-26T12:32:54;5.20;;;3.80;;
76202;SDS011;64985;46.364;17.008;2023-06-26T12:35:57;5.53;;;4.15;;
76202;SDS011;64985;46.364;17.008;2023-06-26T12:39:00;7.63;;;4.30;;
76202;SDS011;64985;46.364;17.008;2023-06-26T12:42:02;5.55;;;4.45;;
76202;SDS011;64985;46.364;17.008;2023-06-26T12:45:10;5.65;;;4.10;;
76202;SDS011;64985;46.364;17.008;2023-06-26T12:48:43;5.13;;;4.05;;
76202;SDS011;64985;46.364;17.008;2023-06-26T12:51:48;4.57;;;4.18;;
76202;SDS011;64985;46.364;17.008;2023-06-26T12:54:54;7.40;;;3.90;;
76202;SDS011;64985;46.364;17.008;2023-06-26T12:57:58;5.00;;;3.70;;
76202;SDS011;64985;46.364;17.008;2023-06-26T13:01:19;5.30;;;4.00;;
76202;SDS011;64985;46.364;17.008;2023-06-26T13:04:21;7.97;;;3.97;;
76202;SDS011;64985;46.364;17.008;2023-06-26T13:07:23;4.78;;;3.70;;
76202;SDS011;64985;46.364;17.008;2023-06-26T13:10:27;5.78;;;3.70;;
76202;SDS011;64985;46.364;17.008;2023-06-26T13:13:30;5.30;;;3.67;;
76202;SDS011;64985;46.364;17.008;2023-06-26T13:16:33;4.28;;;3.88;;
76202;SDS011;64985;46.364;17.008;2023-06-26T13:19:35;6.40;;;3.97;;
76202;SDS011;64985;46.364;17.008;2023-06-26T13:22:37;4.53;;;3.60;;
76202;SDS011;64985;46.364;17.008;2023-06-26T13:25:39;6.03;;;3.60;;
76202;SDS011;64985;46.364;17.008;2023-06-26T13:28:41;4.25;;;3.80;;
76202;SDS011;64985;46.364;17.008;2023-06-26T13:31:43;6.63;;;3.97;;
76202;SDS011;64985;46.364;17.008;2023-06-26T13:34:45;4.25;;;3.70;;
76202;SDS011;64985;46.364;17.008;2023-06-26T13:37:49;9.45;;;4.38;;
76202;SDS011;64985;46.364;17.008;2023-06-26T13:40:52;5.20;;;4.10;;
76202;SDS011;64985;46.364;17.008;2023-06-26T13:44:02;4.28;;;3.88;;
76202;SDS011;64985;46.364;17.008;2023-06-26T13:47:13;5.82;;;4.13;;
76202;SDS011;64985;46.364;17.008;2023-06-26T13:50:16;4.47;;;4.07;;
76202;SDS011;64985;46.364;17.008;2023-06-26T13:53:18;4.32;;;3.78;;
76202;SDS011;64985;46.364;17.008;2023-06-26T13:56:20;4.40;;;3.70;;
76202;SDS011;64985;46.364;17.008;2023-06-26T13:59:24;3.70;;;3.38;;
76202;SDS011;64985;46.364;17.008;2023-06-26T14:02:27;3.83;;;3.42;;
76202;SDS011;64985;46.364;17.008;2023-06-26T14:05:30;3.75;;;3.45;;
76202;SDS011;64985;46.364;17.008;2023-06-26T14:08:35;7.75;;;3.70;;
76202;SDS011;64985;46.364;17.008;2023-06-26T14:11:37;4.10;;;3.47;;
76202;SDS011;64985;46.364;17.008;2023-06-26T14:14:39;3.88;;;3.40;;
76202;SDS011;64985;46.364;17.008;2023-06-26T14:17:41;4.60;;;3.63;;
76202;SDS011;64985;46.364;17.008;2023-06-26T14:20:44;4.20;;;3.65;;
76202;SDS011;64985;46.364;17.008;2023-06-26T14:23:46;4.88;;;3.70;;
76202;SDS011;64985;46.364;17.008;2023-06-26T14:26:48;4.63;;;3.63;;
76202;SDS011;64985;46.364;17.008;2023-06-26T14:29:50;4.35;;;3.58;;
76202;SDS011;64985;46.364;17.008;2023-06-26T14:32:52;3.75;;;3.45;;
76202;SDS011;64985;46.364;17.008;2023-06-26T14:35:54;4.38;;;3.50;;
76202;SDS011;64985;46.364;17.008;2023-06-26T14:38:56;6.22;;;3.45;;
76202;SDS011;64985;46.364;17.008;2023-06-26T14:42:00;3.85;;;3.45;;
76202;SDS011;64985;46.364;17.008;2023-06-26T14:45:03;3.88;;;3.53;;
76202;SDS011;64985;46.364;17.008;2023-06-26T14:48:06;3.90;;;3.60;;
76202;SDS011;64985;46.364;17.008;2023-06-26T14:51:08;4.70;;;3.90;;
76202;SDS011;64985;46.364;17.008;2023-06-26T14:54:10;4.50;;;4.10;;
76202;SDS011;64985;46.364;17.008;2023-06-26T14:57:12;5.22;;;4.22;;
76202;SDS011;64985;46.364;17.008;2023-06-26T15:00:15;7.45;;;4.10;;
76202;SDS011;64985;46.364;17.008;2023-06-26T15:03:17;5.50;;;3.90;;
76202;SDS011;64985;46.364;17.008;2023-06-26T15:06:20;5.13;;;4.22;;
76202;SDS011;64985;46.364;17.008;2023-06-26T15:09:22;7.25;;;4.20;;
76202;SDS011;64985;46.364;17.008;2023-06-26T15:12:25;6.50;;;4.10;;
76202;SDS011;64985;46.364;17.008;2023-06-26T15:15:28;5.25;;;4.20;;
76202;SDS011;64985;46.364;17.008;2023-06-26T15:18:31;5.68;;;4.40;;
76202;SDS011;64985;46.364;17.008;2023-06-26T15:21:33;7.22;;;4.40;;
76202;SDS011;64985;46.364;17.008;2023-06-26T15:24:35;5.22;;;4.20;;
76202;SDS011;64985;46.364;17.008;2023-06-26T15:27:37;5.25;;;4.45;;
76202;SDS011;64985;46.364;17.008;2023-06-26T15:30:40;5.95;;;4.65;;
76202;SDS011;64985;46.364;17.008;2023-06-26T15:33:42;4.55;;;3.88;;
76202;SDS011;64985;46.364;17.008;2023-06-26T15:36:44;6.82;;;4.50;;
76202;SDS011;64985;46.364;17.008;2023-06-26T15:39:46;5.35;;;4.20;;
76202;SDS011;64985;46.364;17.008;2023-06-26T15:42:50;5.05;;;3.85;;
76202;SDS011;64985;46.364;17.008;2023-06-26T15:45:54;5.15;;;4.38;;
76202;SDS011;64985;46.364;17.008;2023-06-26T15:48:56;5.82;;;4.47;;
76202;SDS011;64985;46.364;17.008;2023-06-26T15:51:58;4.72;;;3.85;;
76202;SDS011;64985;46.364;17.008;2023-06-26T15:55:00;10.98;;;5.10;;
76202;SDS011;64985;46.364;17.008;2023-06-26T15:58:02;4.15;;;3.75;;
76202;SDS011;64985;46.364;17.008;2023-06-26T16:01:04;5.43;;;3.83;;
76202;SDS011;64985;46.364;17.008;2023-06-26T16:04:06;6.15;;;4.30;;
76202;SDS011;64985;46.364;17.008;2023-06-26T16:07:09;4.13;;;3.70;;
76202;SDS011;64985;46.364;17.008;2023-06-26T16:10:11;4.97;;;4.10;;
76202;SDS011;64985;46.364;17.008;2023-06-26T16:13:13;6.38;;;3.88;;
76202;SDS011;64985;46.364;17.008;2023-06-26T16:16:17;4.50;;;3.95;;
76202;SDS011;64985;46.364;17.008;2023-06-26T16:19:19;5.20;;;4.20;;
76202;SDS011;64985;46.364;17.008;2023-06-26T16:22:22;4.95;;;3.60;;
76202;SDS011;64985;46.364;17.008;2023-06-26T16:25:24;6.18;;;3.70;;
76202;SDS011;64985;46.364;17.008;2023-06-26T16:28:26;5.10;;;3.75;;
76202;SDS011;64985;46.364;17.008;2023-06-26T16:31:28;5.15;;;3.97;;
76202;SDS011;64985;46.364;17.008;2023-06-26T16:34:30;4.82;;;3.90;;
76202;SDS011;64985;46.364;17.008;2023-06-26T16:37:32;4.88;;;4.13;;
76202;SDS011;64985;46.364;17.008;2023-06-26T16:40:35;5.10;;;4.10;;
76202;SDS011;64985;46.364;17.008;2023-06-26T16:43:38;7.03;;;4.43;;
76202;SDS011;64985;46.364;17.008;2023-06-26T16:46:40;6.88;;;4.50;;
76202;SDS011;64985;46.364;17.008;2023-06-26T16:49:43;6.25;;;4.30;;
76202;SDS011;64985;46.364;17.008;2023-06-26T16:52:45;7.95;;;5.20;;
76202;SDS011;64985;46.364;17.008;2023-06-26T16:55:47;9.25;;;5.30;;
76202;SDS011;64985;46.364;17.008;2023-06-26T16:58:50;7.00;;;4.18;;
76202;SDS011;64985;46.364;17.008;2023-06-26T17:01:52;6.43;;;4.50;;
76202;SDS011;64985;46.364;17.008;2023-06-26T17:04:55;5.32;;;4.60;;
76202;SDS011;64985;46.364;17.008;2023-06-26T17:08:00;10.77;;;5.43;;
76202;SDS011;64985;46.364;17.008;2023-06-26T17:11:03;11.60;;;5.57;;
76202;SDS011;64985;46.364;17.008;2023-06-26T17:14:06;11.10;;;5.47;;
76202;SDS011;64985;46.364;17.008;2023-06-26T17:17:08;7.47;;;4.88;;
76202;SDS011;64985;46.364;17.008;2023-06-26T17:20:10;5.50;;;4.57;;
76202;SDS011;64985;46.364;17.008;2023-06-26T17:23:12;5.78;;;4.75;;
76202;SDS011;64985;46.364;17.008;2023-06-26T17:26:15;8.18;;;5.00;;
76202;SDS011;64985;46.364;17.008;2023-06-26T17:29:17;7.55;;;5.00;;
76202;SDS011;64985;46.364;17.008;2023-06-26T17:32:20;6.53;;;4.22;;
76202;SDS011;64985;46.364;17.008;2023-06-26T17:35:23;5.40;;;4.40;;
76202;SDS011;64985;46.364;17.008;2023-06-26T17:38:26;8.82;;;4.53;;
76202;SDS011;64985;46.364;17.008;2023-06-26T17:41:28;7.32;;;4.60;;
76202;SDS011;64985;46.364;17.008;2023-06-26T17:44:31;12.60;;;4.75;;
76202;SDS011;64985;46.364;17.008;2023-06-26T17:47:33;21.83;;;4.85;;
76202;SDS011;64985;46.364;17.008;2023-06-26T17:50:35;9.85;;;4.65;;
76202;SDS011;64985;46.364;17.008;2023-06-26T17:53:38;11.25;;;4.93;;
76202;SDS011;64985;46.364;17.008;2023-06-26T17:56:40;10.23;;;4.70;;
76202;SDS011;64985;46.364;17.008;2023-06-26T17:59:44;5.63;;;4.63;;
76202;SDS011;64985;46.364;17.008;2023-06-26T18:02:46;7.55;;;4.90;;
76202;SDS011;64985;46.364;17.008;2023-06-26T18:05:50;5.90;;;4.38;;
76202;SDS011;64985;46.364;17.008;2023-06-26T18:08:52;5.47;;;4.97;;
76202;SDS011;64985;46.364;17.008;2023-06-26T18:11:55;5.35;;;4.85;;
76202;SDS011;64985;46.364;17.008;2023-06-26T18:14:57;8.35;;;4.88;;